Time;durP1;ratioP1;P1;durP2;ratioP2;P2;SDS_P1;SDS_P2;PMS_P1;PMS_P2;Temp;Humidity;BMP_temperature;BMP_pressure;BME280_temperature;BME280_humidity;BME280_pressure;Samples;Min_cycle;Max_cycle;Signal;HPM_P1;HPM_P2
2022/12/13 00:01:27;;;;;;;50.20;24.60;;;-4.70;99.90;;;;;;5128445;27;20043;-77
2022/12/13 00:03:57;;;;;;;46.78;22.48;;;-4.80;99.90;;;;;;5128641;27;20135;-77
2022/12/13 00:06:22;;;;;;;48.47;24.33;;;-4.70;99.90;;;;;;5113196;27;20055;-77
2022/12/13 00:08:48;;;;;;;43.97;21.90;;;-4.80;99.90;;;;;;5098834;27;20408;-77
2022/12/13 00:11:14;;;;;;;43.97;23.00;;;-4.80;99.90;;;;;;5126767;27;20059;-77
2022/12/13 00:13:41;;;;;;;43.72;22.38;;;-4.60;99.90;;;;;;5093190;27;20459;-77
2022/12/13 00:16:10;;;;;;;46.67;22.88;;;-4.70;99.90;;;;;;5071721;27;20091;-77
2022/12/13 00:18:36;;;;;;;46.90;22.45;;;-4.90;99.90;;;;;;5081978;28;20055;-77
2022/12/13 00:21:12;;;;;;;47.17;23.15;;;-4.90;99.90;;;;;;5108765;27;20066;-77
2022/12/13 00:23:38;;;;;;;47.53;24.02;;;-4.90;99.90;;;;;;5111505;27;20482;-77
2022/12/13 00:26:10;;;;;;;43.30;22.17;;;-4.90;99.90;;;;;;5102923;27;20139;-77
2022/12/13 00:28:37;;;;;;;43.67;22.67;;;-4.70;99.90;;;;;;5110507;27;20070;-77
2022/12/13 00:31:03;;;;;;;46.10;22.08;;;-4.60;99.90;;;;;;5100905;27;20039;-77
2022/12/13 00:33:28;;;;;;;44.17;21.05;;;-4.90;99.90;;;;;;5108146;27;20535;-77
2022/12/13 00:35:54;;;;;;;41.97;20.38;;;-4.90;99.90;;;;;;5088018;27;20516;-77
2022/12/13 00:38:20;;;;;;;44.92;21.73;;;-4.90;99.90;;;;;;5105950;28;20089;-77
2022/12/13 00:40:46;;;;;;;39.25;20.67;;;-5.00;99.90;;;;;;5083670;27;20090;-77
2022/12/13 00:43:12;;;;;;;44.08;21.45;;;-5.00;99.90;;;;;;5127873;27;20615;-77
2022/12/13 00:45:38;;;;;;;39.45;20.85;;;-5.00;99.90;;;;;;5098877;27;20498;-77
2022/12/13 00:48:04;;;;;;;38.08;21.48;;;-5.00;99.90;;;;;;5090155;28;20040;-78
2022/12/13 00:50:30;;;;;;;42.40;21.13;;;-4.90;99.90;;;;;;5089748;27;20048;-77
2022/12/13 00:52:57;;;;;;;39.83;20.35;;;-5.00;99.90;;;;;;5108492;28;20406;-77
2022/12/13 00:55:23;;;;;;;41.50;20.30;;;-4.80;99.90;;;;;;5108475;27;21961;-77
2022/12/13 00:57:48;;;;;;;48.10;22.33;;;-5.00;99.90;;;;;;5110405;27;20055;-77
2022/12/13 01:00:14;;;;;;;33.05;18.58;;;-5.40;99.90;;;;;;5076099;27;20079;-77
2022/12/13 01:02:40;;;;;;;37.75;19.70;;;-5.70;99.90;;;;;;5094247;27;20039;-77
2022/12/13 01:05:06;;;;;;;37.67;21.00;;;-5.40;99.90;;;;;;5117011;27;20047;-78
2022/12/13 01:07:32;;;;;;;43.03;21.80;;;-5.30;99.90;;;;;;5088364;28;20043;-77
2022/12/13 01:09:57;;;;;;;39.45;20.00;;;-5.10;99.90;;;;;;5085287;27;20118;-77
2022/12/13 01:12:23;;;;;;;35.15;20.08;;;-5.00;99.90;;;;;;5107098;27;20053;-77
2022/12/13 01:14:49;;;;;;;41.88;21.02;;;-5.10;99.90;;;;;;5126776;27;20147;-78
2022/12/13 01:17:14;;;;;;;42.92;20.98;;;-5.00;99.90;;;;;;5091862;27;20100;-77
2022/12/13 01:19:40;;;;;;;38.58;21.50;;;-4.90;99.90;;;;;;5099581;28;20043;-77
2022/12/13 01:22:06;;;;;;;39.95;20.27;;;-4.50;99.90;;;;;;5107000;28;20051;-78
2022/12/13 01:24:32;;;;;;;37.03;20.98;;;-4.90;99.90;;;;;;5088721;27;20096;-77
2022/12/13 01:26:58;;;;;;;42.33;22.58;;;-5.10;99.90;;;;;;5096905;28;20486;-77
2022/12/13 01:29:25;;;;;;;38.13;20.73;;;-5.10;99.90;;;;;;5094886;27;20397;-78
2022/12/13 01:31:52;;;;;;;38.50;19.92;;;-5.10;99.90;;;;;;5108962;27;20096;-78
2022/12/13 01:34:20;;;;;;;38.35;20.75;;;-5.40;99.90;;;;;;5112293;27;20062;-77
2022/12/13 01:36:46;;;;;;;40.90;21.10;;;-5.10;99.90;;;;;;5086509;28;20061;-77
2022/12/13 01:39:15;;;;;;;44.45;22.60;;;-5.50;99.90;;;;;;5094387;28;20159;-78
2022/12/13 01:41:44;;;;;;;42.60;22.17;;;-5.10;99.90;;;;;;5095246;27;20044;-77
2022/12/13 01:44:47;;;;;;;43.53;21.85;;;-5.00;99.90;;;;;;5114623;27;20046;-78
2022/12/13 01:47:17;;;;;;;41.95;21.02;;;-5.10;99.90;;;;;;5123961;27;20047;-77
2022/12/13 01:49:43;;;;;;;42.38;21.30;;;-4.90;99.90;;;;;;5095568;28;20083;-77
2022/12/13 01:52:12;;;;;;;41.25;20.80;;;-5.10;99.90;;;;;;5088036;28;20069;-77
2022/12/13 01:54:42;;;;;;;42.22;21.02;;;-5.10;99.90;;;;;;5110305;28;20054;-77
2022/12/13 01:57:10;;;;;;;40.85;20.63;;;-5.10;99.90;;;;;;5104527;28;20475;-77
2022/12/13 01:59:38;;;;;;;41.28;21.05;;;-5.20;99.90;;;;;;5089465;28;20051;-77
2022/12/13 02:02:06;;;;;;;42.35;20.85;;;-5.10;99.90;;;;;;5106211;28;20035;-77
2022/12/13 02:04:54;;;;;;;38.90;21.42;;;-5.00;99.90;;;;;;5106269;28;20051;-77
2022/12/13 02:07:26;;;;;;;43.00;20.85;;;-5.40;99.90;;;;;;5109364;28;20096;-77
2022/12/13 02:09:54;;;;;;;38.55;21.33;;;-5.20;99.90;;;;;;5088987;28;20051;-77
2022/12/13 02:12:20;;;;;;;38.70;20.88;;;-5.30;99.90;;;;;;5120859;28;20725;-77
2022/12/13 02:15:44;;;;;;;39.35;21.42;;;-5.10;99.90;;;;;;5115228;28;20043;-80
2022/12/13 02:18:32;;;;;;;39.85;21.67;;;-4.90;99.90;;;;;;5096190;28;20075;-78
2022/12/13 02:21:09;;;;;;;42.00;21.75;;;-5.20;99.90;;;;;;5101348;28;20614;-78
2022/12/13 02:23:50;;;;;;;41.53;20.17;;;-5.20;99.90;;;;;;5111744;28;20120;-78
2022/12/13 02:26:43;;;;;;;42.40;20.35;;;-5.20;99.90;;;;;;5115756;28;20050;-79
2022/12/13 02:29:39;;;;;;;39.35;20.98;;;-5.20;99.90;;;;;;5107606;28;20405;-78
2022/12/13 02:32:43;;;;;;;38.55;19.38;;;-5.20;99.90;;;;;;5084213;28;20131;-79
2022/12/13 02:35:17;;;;;;;40.67;21.00;;;-5.20;99.90;;;;;;5094435;27;20051;-78
2022/12/13 02:37:57;;;;;;;40.85;22.58;;;-5.20;99.90;;;;;;5125025;27;20062;-78
2022/12/13 02:40:26;;;;;;;40.67;20.48;;;-5.10;99.90;;;;;;5091341;28;20054;-78
2022/12/13 02:43:03;;;;;;;41.53;21.60;;;-5.20;99.90;;;;;;5120226;27;20122;-78
2022/12/13 02:45:36;;;;;;;36.15;20.48;;;-5.20;99.90;;;;;;5117819;27;20066;-78
2022/12/13 02:48:04;;;;;;;37.38;19.73;;;-5.30;99.90;;;;;;5104031;28;20051;-78
2022/12/13 02:50:31;;;;;;;36.72;19.65;;;-5.20;99.90;;;;;;5113944;27;20035;-79
2022/12/13 02:52:58;;;;;;;38.08;20.67;;;-5.30;99.90;;;;;;5129476;27;20048;-78
2022/12/13 02:55:25;;;;;;;33.30;19.20;;;-5.50;99.90;;;;;;5128666;27;20058;-79
2022/12/13 02:57:50;;;;;;;37.35;20.17;;;-5.50;99.90;;;;;;5106611;27;20049;-78
2022/12/13 03:00:39;;;;;;;37.42;20.42;;;-5.40;99.90;;;;;;5107487;28;20047;-78
2022/12/13 03:03:31;;;;;;;30.55;17.15;;;-5.40;99.90;;;;;;5126206;27;20515;-78
2022/12/13 03:06:30;;;;;;;33.47;19.37;;;-5.40;99.90;;;;;;5121716;27;20094;-78
2022/12/13 03:09:16;;;;;;;35.50;18.58;;;-5.40;99.90;;;;;;5116750;27;20043;-79
2022/12/13 03:15:10;;;;;;;36.63;20.27;;;-5.40;99.90;;;;;;5093953;28;20072;-78
2022/12/13 03:17:44;;;;;;;39.00;19.52;;;-5.50;99.90;;;;;;5092909;27;20043;-78
2022/12/13 03:20:14;;;;;;;35.08;19.63;;;-5.50;99.90;;;;;;5110027;28;20673;-78
2022/12/13 03:22:39;;;;;;;37.47;20.08;;;-5.50;99.90;;;;;;5073610;28;20466;-78
2022/12/13 03:25:05;;;;;;;36.40;19.55;;;-5.50;99.90;;;;;;5092778;28;20044;-78
2022/12/13 03:27:31;;;;;;;38.03;18.60;;;-5.50;99.90;;;;;;5125979;27;20046;-78
2022/12/13 03:30:00;;;;;;;38.03;20.40;;;-5.40;99.90;;;;;;5112286;27;20035;-78
2022/12/13 03:32:28;;;;;;;38.78;20.63;;;-5.50;99.90;;;;;;5108645;27;20055;-78
2022/12/13 03:34:57;;;;;;;34.10;18.25;;;-5.50;99.90;;;;;;5093458;27;20051;-79
2022/12/13 03:37:23;;;;;;;38.33;19.70;;;-3.60;99.90;;;;;;5110853;27;20051;-78
2022/12/13 03:39:48;;;;;;;35.45;19.27;;;-5.20;99.90;;;;;;5123011;27;20104;-78
2022/12/13 03:42:14;;;;;;;33.75;18.45;;;-5.60;99.90;;;;;;5110720;27;20036;-78
2022/12/13 03:44:40;;;;;;;31.52;18.48;;;-5.50;99.90;;;;;;5120002;27;20114;-78
2022/12/13 03:47:05;;;;;;;37.83;19.65;;;-5.60;99.90;;;;;;5106725;27;20055;-78
2022/12/13 03:49:31;;;;;;;33.45;18.70;;;-5.60;99.90;;;;;;5124975;27;20051;-78
2022/12/13 03:51:56;;;;;;;37.90;20.27;;;-5.60;99.90;;;;;;5104723;27;20115;-78
2022/12/13 03:54:22;;;;;;;35.20;18.73;;;-5.60;99.90;;;;;;5054405;27;20365;-79
2022/12/13 03:56:47;;;;;;;33.95;20.27;;;-5.60;99.90;;;;;;5106774;27;20133;-79
2022/12/13 03:59:13;;;;;;;35.33;19.42;;;-5.60;99.90;;;;;;5128982;27;20489;-78
2022/12/13 04:01:38;;;;;;;35.55;18.92;;;-5.70;99.90;;;;;;5095523;28;20146;-79
2022/12/13 04:04:04;;;;;;;39.88;20.77;;;-5.60;99.90;;;;;;5111888;27;20061;-78
2022/12/13 04:06:29;;;;;;;42.45;21.05;;;-5.60;99.90;;;;;;5098300;27;20070;-78
2022/12/13 04:08:55;;;;;;;37.40;19.98;;;-5.70;99.90;;;;;;5104620;27;20043;-77
2022/12/13 04:14:05;;;;;;;34.80;17.75;;;-5.60;99.90;;;;;;5109115;27;20062;-78
2022/12/13 04:16:31;;;;;;;36.08;18.70;;;-5.60;99.90;;;;;;5087391;27;20051;-77
2022/12/13 04:18:56;;;;;;;37.65;20.42;;;-5.70;99.90;;;;;;5104166;27;20043;-77
2022/12/13 04:21:22;;;;;;;35.58;18.80;;;-5.70;99.90;;;;;;5115401;27;20405;-77
2022/12/13 04:23:47;;;;;;;35.03;19.50;;;-5.70;99.90;;;;;;5105777;27;20039;-77
2022/12/13 04:26:13;;;;;;;37.88;20.10;;;-5.70;99.90;;;;;;5094788;27;20133;-76
2022/12/13 04:28:39;;;;;;;37.90;18.75;;;-5.80;99.90;;;;;;5107985;27;20049;-77
2022/12/13 04:31:04;;;;;;;35.58;17.98;;;-5.70;99.90;;;;;;5110087;27;20046;-78
2022/12/13 04:33:31;;;;;;;36.22;20.45;;;-5.70;99.90;;;;;;5093026;28;20202;-78
2022/12/13 04:35:57;;;;;;;33.58;18.30;;;-5.80;99.90;;;;;;5096088;27;20055;-77
2022/12/13 04:38:22;;;;;;;36.50;19.77;;;-5.70;99.90;;;;;;5106088;27;20043;-77
2022/12/13 04:40:48;;;;;;;41.92;20.35;;;-5.70;99.90;;;;;;5094247;27;20489;-77
2022/12/13 04:43:14;;;;;;;31.73;18.77;;;-5.80;99.90;;;;;;5104573;27;20501;-77
2022/12/13 04:45:39;;;;;;;33.45;19.20;;;-5.80;99.90;;;;;;5088470;28;20459;-77
2022/12/13 04:48:05;;;;;;;35.72;19.20;;;-5.80;99.90;;;;;;5100332;27;20087;-78
2022/12/13 04:50:31;;;;;;;35.65;19.08;;;-5.80;99.90;;;;;;5102640;27;20468;-77
2022/12/13 04:52:56;;;;;;;36.75;18.77;;;-5.80;99.90;;;;;;5108317;27;20067;-77
2022/12/13 04:55:22;;;;;;;32.30;17.88;;;-5.80;99.90;;;;;;5098466;28;20035;-78
2022/12/13 04:57:48;;;;;;;35.33;18.63;;;-5.80;99.90;;;;;;5087980;28;20085;-78
2022/12/13 05:00:14;;;;;;;37.42;19.33;;;-5.80;99.90;;;;;;5104773;27;20051;-78
2022/12/13 05:02:40;;;;;;;33.97;19.15;;;-5.80;99.90;;;;;;5109455;27;20039;-78
2022/12/13 05:05:10;;;;;;;37.13;19.50;;;-5.70;99.90;;;;;;5085868;28;20093;-78
2022/12/13 05:07:37;;;;;;;37.20;20.80;;;-5.80;99.90;;;;;;5096362;27;20039;-78
2022/12/13 05:10:03;;;;;;;35.88;19.00;;;-5.90;99.90;;;;;;5097072;28;20123;-77
2022/12/13 05:12:29;;;;;;;41.20;18.45;;;-5.80;99.90;;;;;;5089074;28;20108;-77
2022/12/13 05:14:54;;;;;;;35.63;18.63;;;-5.80;99.90;;;;;;5094116;27;20047;-78
2022/12/13 05:17:20;;;;;;;38.63;20.08;;;-5.90;99.90;;;;;;5093374;27;20082;-78
2022/12/13 05:19:46;;;;;;;37.83;21.50;;;-5.80;99.90;;;;;;5080751;28;20051;-77
2022/12/13 05:22:14;;;;;;;42.90;20.83;;;-5.80;99.90;;;;;;5086724;27;20055;-78
2022/12/13 05:24:43;;;;;;;36.83;18.85;;;-5.80;99.90;;;;;;5108797;27;20039;-78
2022/12/13 05:27:10;;;;;;;42.30;20.77;;;-5.80;99.90;;;;;;5081491;28;20138;-78
2022/12/13 05:29:36;;;;;;;38.33;20.42;;;-5.80;99.90;;;;;;5101229;27;20047;-78
2022/12/13 05:32:01;;;;;;;39.97;20.80;;;-5.90;99.90;;;;;;5085563;28;20071;-78
2022/12/13 05:34:27;;;;;;;39.00;20.35;;;-5.80;99.90;;;;;;5090628;27;21795;-78
2022/12/13 05:36:53;;;;;;;39.00;20.52;;;-5.80;99.90;;;;;;5084415;28;20096;-78
2022/12/13 05:39:18;;;;;;;38.85;18.98;;;-5.90;99.90;;;;;;5119884;27;20090;-78
2022/12/13 05:41:44;;;;;;;37.72;19.95;;;-5.80;99.90;;;;;;5087312;28;20039;-78
2022/12/13 05:44:12;;;;;;;42.28;22.10;;;-5.90;99.90;;;;;;5068091;28;20048;-78
2022/12/13 05:46:38;;;;;;;43.00;21.25;;;-5.90;99.90;;;;;;5084501;28;20496;-78
2022/12/13 05:49:03;;;;;;;42.70;19.83;;;-5.90;99.90;;;;;;5108571;28;20042;-78
2022/12/13 05:51:29;;;;;;;42.28;21.35;;;-5.80;99.90;;;;;;5099879;28;20054;-78
2022/12/13 05:53:54;;;;;;;43.72;22.30;;;-5.90;99.90;;;;;;5088014;28;20256;-78
2022/12/13 05:56:20;;;;;;;39.67;19.85;;;-5.90;99.90;;;;;;5099175;28;20058;-78
2022/12/13 05:58:45;;;;;;;37.70;22.00;;;-5.90;99.90;;;;;;5123122;28;20045;-78
2022/12/13 06:01:13;;;;;;;42.40;21.83;;;-5.80;99.90;;;;;;5077577;28;20042;-77
2022/12/13 06:03:40;;;;;;;38.75;21.50;;;-5.80;99.90;;;;;;5094755;28;20072;-77
2022/12/13 06:06:07;;;;;;;39.80;20.45;;;-5.90;99.90;;;;;;5084056;28;20039;-78
2022/12/13 06:08:33;;;;;;;43.72;22.08;;;-5.90;99.90;;;;;;5091191;28;20070;-78
2022/12/13 06:11:00;;;;;;;43.83;22.27;;;-5.90;99.90;;;;;;5124865;27;20043;-77
2022/12/13 06:13:26;;;;;;;46.22;22.92;;;-5.90;99.90;;;;;;5118760;27;20199;-77
2022/12/13 06:15:53;;;;;;;47.22;22.92;;;-5.90;99.90;;;;;;5109602;28;20234;-78
2022/12/13 06:18:18;;;;;;;47.78;21.95;;;-5.90;99.90;;;;;;5104717;27;20048;-78
2022/12/13 06:20:46;;;;;;;49.03;22.80;;;-5.90;99.90;;;;;;5099008;27;20096;-78
2022/12/13 06:23:11;;;;;;;50.08;23.75;;;-5.90;99.90;;;;;;5113075;27;20039;-77
2022/12/13 06:25:37;;;;;;;46.42;23.45;;;-5.90;99.90;;;;;;5092673;27;20051;-77
2022/12/13 06:28:03;;;;;;;47.90;22.88;;;-5.90;99.90;;;;;;5112289;27;20091;-77
2022/12/13 06:30:29;;;;;;;45.28;21.10;;;-5.90;99.90;;;;;;5111830;27;20081;-77
2022/12/13 06:32:55;;;;;;;44.72;21.52;;;-5.80;99.90;;;;;;5097208;27;20047;-77
2022/12/13 06:35:21;;;;;;;48.50;22.60;;;-5.90;99.90;;;;;;5107442;27;20050;-78
2022/12/13 06:37:51;;;;;;;46.75;23.27;;;-6.00;99.90;;;;;;5130014;27;20031;-78
2022/12/13 06:40:17;;;;;;;52.28;21.67;;;-5.90;99.90;;;;;;5127903;27;20062;-78
2022/12/13 06:42:43;;;;;;;47.53;23.55;;;-5.90;99.90;;;;;;5087400;28;20059;-78
2022/12/13 06:45:10;;;;;;;132.85;29.77;;;-5.90;99.90;;;;;;5072496;28;20052;-77
2022/12/13 06:47:36;;;;;;;44.38;21.98;;;-6.00;99.90;;;;;;5127272;27;20051;-77
2022/12/13 06:50:01;;;;;;;52.83;23.10;;;-5.90;99.90;;;;;;5075294;28;20054;-77
2022/12/13 06:52:27;;;;;;;45.88;22.90;;;-5.90;99.90;;;;;;5103758;27;20420;-77
2022/12/13 06:54:53;;;;;;;48.78;22.45;;;-5.90;99.90;;;;;;5096133;28;20104;-78
2022/12/13 06:57:18;;;;;;;44.92;22.75;;;-5.90;99.90;;;;;;5092673;27;20051;-79
2022/12/13 06:59:44;;;;;;;51.42;23.73;;;-5.90;99.90;;;;;;5098649;28;20079;-79
2022/12/13 07:02:09;;;;;;;53.33;25.02;;;-5.90;99.90;;;;;;5092375;28;20067;-79
2022/12/13 07:04:35;;;;;;;47.50;24.17;;;-5.90;99.90;;;;;;5092923;28;20458;-79
2022/12/13 07:07:01;;;;;;;46.33;22.98;;;-5.80;99.90;;;;;;5092810;28;20044;-79
2022/12/13 07:09:28;;;;;;;42.05;21.65;;;-5.90;99.90;;;;;;5093215;28;20048;-79
2022/12/13 07:11:54;;;;;;;47.25;23.60;;;-5.90;99.90;;;;;;5117045;27;20135;-79
2022/12/13 07:14:19;;;;;;;49.90;22.88;;;-5.90;99.90;;;;;;5113053;27;20491;-79
2022/12/13 07:16:45;;;;;;;46.90;23.70;;;-5.90;99.90;;;;;;5106338;27;20043;-79
2022/12/13 07:19:11;;;;;;;44.88;23.15;;;-5.90;99.90;;;;;;5098579;28;20562;-79
2022/12/13 07:21:38;;;;;;;43.33;23.58;;;-5.90;99.90;;;;;;5109112;28;20436;-79
2022/12/13 07:24:04;;;;;;;41.10;22.40;;;-5.20;99.90;;;;;;5092626;28;20404;-79
2022/12/13 07:26:30;;;;;;;49.53;23.35;;;-6.00;99.90;;;;;;5092151;28;20085;-79
2022/12/13 07:28:56;;;;;;;47.30;22.77;;;-6.00;99.90;;;;;;5092559;28;20051;-79
2022/12/13 07:31:23;;;;;;;45.38;23.98;;;-6.00;99.90;;;;;;5091609;28;20044;-79
2022/12/13 07:33:49;;;;;;;38.70;21.35;;;-6.00;99.90;;;;;;5075581;28;20048;-79
2022/12/13 07:36:17;;;;;;;47.03;23.52;;;-5.90;99.90;;;;;;5104082;27;20039;-78
2022/12/13 07:38:43;;;;;;;39.42;21.13;;;-6.00;99.90;;;;;;5112936;27;20034;-78
2022/12/13 07:41:09;;;;;;;53.35;26.73;;;-6.00;99.90;;;;;;5112549;27;20055;-79
2022/12/13 07:43:35;;;;;;;48.60;24.05;;;-6.00;99.90;;;;;;5129407;27;20047;-79
2022/12/13 07:46:03;;;;;;;45.00;23.02;;;-6.00;99.90;;;;;;5111311;27;20043;-79
2022/12/13 07:48:30;;;;;;;48.58;23.48;;;-5.90;99.90;;;;;;5129353;27;20083;-79
2022/12/13 07:51:01;;;;;;;58.90;31.80;;;-5.90;99.90;;;;;;5101812;27;20043;-79
2022/12/13 07:53:27;;;;;;;65.18;32.20;;;-5.90;99.90;;;;;;5104364;28;20057;-78
2022/12/13 07:55:53;;;;;;;63.53;31.67;;;-5.90;99.90;;;;;;5110249;28;20059;-78
2022/12/13 07:58:18;;;;;;;53.60;28.05;;;-5.90;99.90;;;;;;5091905;28;20122;-78
2022/12/13 08:00:45;;;;;;;51.42;26.30;;;-5.90;99.90;;;;;;5091701;28;20044;-78
2022/12/13 08:03:11;;;;;;;49.58;27.88;;;-5.90;99.90;;;;;;5102720;27;20051;-77
2022/12/13 08:05:37;;;;;;;53.00;28.75;;;-5.80;99.90;;;;;;5095068;27;20039;-77
2022/12/13 08:08:05;;;;;;;53.90;27.60;;;-5.90;99.90;;;;;;5102610;28;20486;-78
2022/12/13 08:10:31;;;;;;;62.35;30.92;;;-5.80;99.90;;;;;;5108887;28;20071;-79
2022/12/13 08:12:57;;;;;;;56.40;30.33;;;-5.80;99.90;;;;;;5090841;28;20501;-78
2022/12/13 08:15:24;;;;;;;54.72;28.90;;;-5.80;99.90;;;;;;5098325;27;20545;-79
2022/12/13 08:17:50;;;;;;;57.60;27.70;;;-5.70;99.90;;;;;;5130786;27;20153;-79
2022/12/13 08:20:16;;;;;;;56.88;27.33;;;-5.70;99.90;;;;;;5129814;27;20122;-79
2022/12/13 08:22:42;;;;;;;52.30;26.45;;;-5.70;99.90;;;;;;5111592;27;20164;-79
2022/12/13 08:25:08;;;;;;;52.05;26.40;;;-5.70;99.90;;;;;;5108542;27;20043;-83
2022/12/13 08:27:34;;;;;;;48.63;25.55;;;-5.60;99.90;;;;;;5090622;28;20088;-78
2022/12/13 08:29:59;;;;;;;53.83;24.88;;;-5.60;99.90;;;;;;5091491;28;20051;-79
2022/12/13 08:32:25;;;;;;;55.50;27.42;;;-5.60;99.90;;;;;;5109172;28;20082;-79
2022/12/13 08:34:51;;;;;;;55.25;24.95;;;-5.50;99.90;;;;;;5090788;28;20428;-79
2022/12/13 08:37:17;;;;;;;54.42;25.92;;;-5.40;99.90;;;;;;5090238;28;20048;-79
2022/12/13 08:39:45;;;;;;;57.55;26.80;;;-5.40;99.90;;;;;;5109178;28;20131;-79
2022/12/13 08:42:14;;;;;;;58.65;27.23;;;-5.30;99.90;;;;;;5090600;28;20050;-79
2022/12/13 08:44:39;;;;;;;55.80;26.35;;;-5.30;99.90;;;;;;5089973;28;20055;-80
2022/12/13 08:47:05;;;;;;;56.60;28.02;;;-5.20;99.90;;;;;;5074152;28;20044;-79
2022/12/13 08:49:31;;;;;;;57.13;27.63;;;-5.20;99.90;;;;;;5090668;28;20048;-79
2022/12/13 08:51:57;;;;;;;54.70;27.25;;;-5.10;99.90;;;;;;5108225;28;20048;-79
2022/12/13 08:54:22;;;;;;;59.20;29.77;;;-5.10;99.90;;;;;;5090528;28;20063;-79
2022/12/13 08:56:48;;;;;;;54.08;27.33;;;-5.00;99.90;;;;;;5088893;28;20044;-79
2022/12/13 08:59:14;;;;;;;55.30;27.83;;;-4.90;99.90;;;;;;5088455;28;20039;-79
2022/12/13 09:01:39;;;;;;;60.13;29.95;;;-4.90;99.90;;;;;;5088535;28;20051;-79
2022/12/13 09:04:05;;;;;;;58.60;28.02;;;-4.80;99.90;;;;;;5088513;28;20051;-80
2022/12/13 09:06:30;;;;;;;57.80;27.52;;;-4.70;99.90;;;;;;5108061;28;20050;-79
2022/12/13 09:08:56;;;;;;;57.60;29.55;;;-4.70;99.90;;;;;;5090550;28;20158;-79
2022/12/13 09:11:22;;;;;;;59.92;28.52;;;-4.60;99.90;;;;;;5085855;28;20142;-80
2022/12/13 09:13:48;;;;;;;59.42;29.50;;;-4.50;99.90;;;;;;5070332;28;20115;-80
2022/12/13 09:16:18;;;;;;;65.05;30.65;;;-4.50;99.90;;;;;;5086860;28;20047;-80
2022/12/13 09:18:44;;;;;;;61.78;31.73;;;-4.30;99.90;;;;;;5067445;28;20036;-79
2022/12/13 09:21:12;;;;;;;59.47;30.15;;;-4.40;99.90;;;;;;5066790;28;20044;-78
2022/12/13 09:23:42;;;;;;;59.17;28.17;;;-4.30;99.90;;;;;;5065071;28;20615;-78
2022/12/13 09:26:12;;;;;;;56.83;30.92;;;-4.10;99.90;;;;;;5067963;28;20838;-78
2022/12/13 09:28:38;;;;;;;58.70;28.77;;;-4.20;99.90;;;;;;5060933;28;20049;-79
2022/12/13 09:31:09;;;;;;;61.90;29.17;;;-4.10;99.90;;;;;;5064671;28;20128;-79
2022/12/13 09:33:35;;;;;;;60.45;30.80;;;-4.10;99.90;;;;;;5066836;28;20059;-78
2022/12/13 09:36:06;;;;;;;60.70;31.95;;;-4.00;99.90;;;;;;5064792;28;20049;-79
2022/12/13 09:38:34;;;;;;;65.13;32.25;;;-3.90;99.90;;;;;;5046291;28;20091;-78
2022/12/13 09:41:10;;;;;;;59.67;29.10;;;-3.90;99.90;;;;;;5049981;28;20093;-80
2022/12/13 09:43:36;;;;;;;58.17;30.33;;;-3.80;99.90;;;;;;5050019;28;20053;-79
2022/12/13 09:46:10;;;;;;;64.90;30.00;;;-3.70;99.90;;;;;;5065875;28;20071;-79
2022/12/13 09:48:36;;;;;;;60.67;31.67;;;-3.70;99.90;;;;;;5066747;28;20044;-79
2022/12/13 09:51:02;;;;;;;62.70;30.17;;;-3.60;99.90;;;;;;5066568;28;20044;-79
2022/12/13 09:53:28;;;;;;;58.97;29.38;;;-3.50;99.90;;;;;;5065500;28;20411;-79
2022/12/13 09:55:54;;;;;;;66.25;29.33;;;;;;;;;;5073546;28;20490;-81
2022/12/13 09:58:21;;;;;;;55.97;29.83;;;;;;;;;;5087548;28;20043;-78
2022/12/13 10:00:49;;;;;;;56.88;30.27;;;;;;;;;;5086343;28;20051;-79
2022/12/13 10:03:17;;;;;;;60.78;29.52;;;-3.20;99.90;;;;;;5073426;28;20155;-78
2022/12/13 10:05:52;;;;;;;66.15;32.88;;;-3.20;99.90;;;;;;5034350;28;20044;-78
2022/12/13 10:08:24;;;;;;;67.13;31.33;;;-3.20;99.90;;;;;;5049084;28;20051;-79
2022/12/13 10:10:52;;;;;;;56.67;30.65;;;-3.20;99.90;;;;;;5078350;28;20083;-82
2022/12/13 10:13:37;;;;;;;63.50;29.63;;;-3.00;99.90;;;;;;5081692;28;20531;-79
2022/12/13 10:16:12;;;;;;;65.25;31.15;;;-3.00;99.90;;;;;;5053467;28;20052;-79
2022/12/13 10:18:42;;;;;;;57.22;29.42;;;-3.00;99.90;;;;;;5054652;28;20754;-79
2022/12/13 10:21:16;;;;;;;52.97;27.48;;;-2.90;99.90;;;;;;5066350;28;20128;-79
2022/12/13 10:23:42;;;;;;;62.30;30.17;;;-2.90;99.90;;;;;;5064991;28;20043;-79
2022/12/13 10:26:10;;;;;;;60.08;29.80;;;-2.80;99.90;;;;;;5083435;28;20044;-79
2022/12/13 10:28:36;;;;;;;62.15;29.50;;;-2.80;99.90;;;;;;5086108;28;20051;-79
2022/12/13 10:31:02;;;;;;;58.58;30.60;;;-2.60;99.90;;;;;;5086231;28;20440;-79
2022/12/13 10:33:34;;;;;;;61.55;30.17;;;-2.60;99.90;;;;;;5083406;28;20439;-79
2022/12/13 10:36:30;;;;;;;57.47;28.83;;;-2.60;99.90;;;;;;5048649;28;20047;-79
2022/12/13 10:38:55;;;;;;;59.20;29.17;;;-2.50;99.90;;;;;;5065195;28;20495;-78
2022/12/13 10:41:36;;;;;;;65.15;31.08;;;-2.50;99.90;;;;;;5070383;28;20089;-80
2022/12/13 10:44:10;;;;;;;56.72;29.75;;;-2.40;99.90;;;;;;5079438;28;20116;-79
2022/12/13 10:46:38;;;;;;;60.08;30.35;;;-2.40;99.90;;;;;;5049265;28;20849;-78
2022/12/13 10:49:21;;;;;;;49.70;27.80;;;-2.30;99.90;;;;;;5065650;28;20044;-78
2022/12/13 10:51:49;;;;;;;57.97;29.40;;;-2.30;99.90;;;;;;5063911;28;20182;-78
2022/12/13 10:54:24;;;;;;;60.47;29.92;;;-2.30;99.90;;;;;;5066638;28;20431;-78
2022/12/13 10:56:52;;;;;;;68.30;29.52;;;-2.20;99.90;;;;;;5079281;28;20053;-78
2022/12/13 10:59:35;;;;;;;57.03;29.42;;;-2.10;99.90;;;;;;5085571;28;20124;-78
2022/12/13 11:02:21;;;;;;;60.53;30.35;;;-2.10;99.90;;;;;;5070696;28;20083;-78
2022/12/13 11:04:47;;;;;;;53.78;27.60;;;-2.00;99.90;;;;;;5067415;28;20040;-79
2022/12/13 11:07:23;;;;;;;58.65;29.67;;;-2.00;99.90;;;;;;5068523;28;20065;-78
2022/12/13 11:09:48;;;;;;;55.60;28.58;;;-1.90;99.90;;;;;;5068016;28;20078;-78
2022/12/13 11:12:18;;;;;;;53.75;28.25;;;-1.80;99.90;;;;;;5078030;28;20116;-79
2022/12/13 11:15:00;;;;;;;54.67;28.70;;;-1.80;99.90;;;;;;5085639;28;20052;-79
2022/12/13 11:17:28;;;;;;;50.83;28.08;;;-1.80;99.90;;;;;;5054075;28;20121;-79
2022/12/13 11:19:59;;;;;;;52.92;28.65;;;-1.70;99.90;;;;;;5100861;28;20039;-79
2022/12/13 11:22:31;;;;;;;53.75;26.40;;;-1.70;99.90;;;;;;5108850;28;20135;-79
2022/12/13 11:25:06;;;;;;;54.70;30.20;;;-1.60;99.90;;;;;;5109483;28;20093;-79
2022/12/13 11:28:00;;;;;;;55.63;28.20;;;-1.60;99.90;;;;;;5098918;28;20047;-79
2022/12/13 11:30:54;;;;;;;47.80;27.13;;;-1.60;99.90;;;;;;5088571;28;20118;-79
2022/12/13 11:33:30;;;;;;;51.17;28.05;;;-1.50;99.90;;;;;;5084540;28;20523;-79
2022/12/13 11:36:01;;;;;;;55.47;30.13;;;-1.40;99.90;;;;;;5095229;28;20806;-79
2022/12/13 11:38:33;;;;;;;54.08;28.48;;;-1.40;99.90;;;;;;5077290;28;20075;-80
2022/12/13 11:41:22;;;;;;;55.50;28.80;;;-1.30;99.90;;;;;;5084773;28;20050;-80
2022/12/13 11:44:02;;;;;;;55.00;29.55;;;-1.20;99.90;;;;;;5085216;28;20452;-80
2022/12/13 11:46:37;;;;;;;47.95;25.85;;;-1.20;99.90;;;;;;5072816;28;20044;-79
2022/12/13 11:49:10;;;;;;;56.55;28.65;;;-1.20;99.90;;;;;;5090762;28;20398;-78
2022/12/13 11:51:58;;;;;;;58.22;28.65;;;-1.10;99.90;;;;;;5086246;28;20155;-79
2022/12/13 11:54:51;;;;;;;57.75;29.77;;;-1.00;99.90;;;;;;5089943;28;20051;-78
2022/12/13 11:57:30;;;;;;;52.08;28.30;;;-1.00;99.90;;;;;;5086786;28;20052;-78
2022/12/13 12:00:32;;;;;;;51.25;29.38;;;-0.90;99.90;;;;;;5087735;28;20054;-79
2022/12/13 12:03:34;;;;;;;50.53;29.17;;;-0.90;99.90;;;;;;5105349;28;20762;-79
2022/12/13 12:06:14;;;;;;;46.15;25.65;;;-0.90;99.90;;;;;;5104033;28;20306;-79
2022/12/13 12:08:46;;;;;;;50.67;27.95;;;-0.80;99.90;;;;;;5075986;28;20044;-78
2022/12/13 12:11:34;;;;;;;45.42;24.67;;;-0.80;99.90;;;;;;5106510;28;20388;-79
2022/12/13 12:14:16;;;;;;;46.70;26.65;;;-0.80;99.90;;;;;;5091537;28;20051;-79
2022/12/13 12:16:57;;;;;;;53.70;29.27;;;-0.70;99.90;;;;;;5091574;28;20086;-79
2022/12/13 12:19:27;;;;;;;50.65;29.40;;;-0.60;99.90;;;;;;5092318;28;20048;-76
2022/12/13 12:22:26;;;;;;;51.45;29.73;;;-0.50;99.90;;;;;;5121451;27;20837;-79
2022/12/13 12:25:21;;;;;;;50.63;26.27;;;-0.50;99.90;;;;;;5099848;28;20035;-80
2022/12/13 12:28:09;;;;;;;44.83;26.25;;;-0.40;99.90;;;;;;5086123;28;20131;-79
2022/12/13 12:31:13;;;;;;;46.45;25.75;;;-0.30;99.90;;;;;;5072713;28;20055;-78
2022/12/13 12:33:52;;;;;;;45.78;26.23;;;-0.20;99.90;;;;;;5089906;28;20043;-79
2022/12/13 12:36:34;;;;;;;50.20;26.45;;;-0.20;99.90;;;;;;5088383;28;20486;-79
2022/12/13 12:39:15;;;;;;;45.60;27.65;;;-0.30;99.90;;;;;;5089642;28;20092;-79
2022/12/13 12:41:50;;;;;;;47.63;26.17;;;-0.20;99.90;;;;;;5088748;28;20059;-79
2022/12/13 12:44:28;;;;;;;47.45;26.65;;;-0.20;99.90;;;;;;5096080;27;20046;-79
2022/12/13 12:47:07;;;;;;;46.28;28.48;;;-0.20;99.90;;;;;;5096501;27;20134;-79
2022/12/13 12:50:01;;;;;;;45.30;26.95;;;-0.10;99.90;;;;;;5088440;28;20158;-78